sensor_id;sensor_type;location;lat;lon;timestamp;temperature;humidity
45643;DHT22;31358;46.008;11.144;2023-09-07T00:00:52;18.90;99.90
45643;DHT22;31358;46.008;11.144;2023-09-07T00:03:18;18.90;99.90
45643;DHT22;31358;46.008;11.144;2023-09-07T00:05:45;18.80;99.90
45643;DHT22;31358;46.008;11.144;2023-09-07T00:08:10;18.70;99.90
45643;DHT22;31358;46.008;11.144;2023-09-07T00:10:36;18.80;99.90
45643;DHT22;31358;46.008;11.144;2023-09-07T00:13:02;18.80;99.90
45643;DHT22;31358;46.008;11.144;2023-09-07T00:15:29;18.80;99.90
45643;DHT22;31358;46.008;11.144;2023-09-07T00:17:55;18.80;99.90
45643;DHT22;31358;46.008;11.144;2023-09-07T00:20:22;18.80;99.90
45643;DHT22;31358;46.008;11.144;2023-09-07T00:22:49;18.90;99.90
45643;DHT22;31358;46.008;11.144;2023-09-07T00:25:14;18.80;99.90
45643;DHT22;31358;46.008;11.144;2023-09-07T00:27:40;18.80;99.90
45643;DHT22;31358;46.008;11.144;2023-09-07T00:30:06;18.80;99.90
45643;DHT22;31358;46.008;11.144;2023-09-07T00:32:36;18.80;99.90
45643;DHT22;31358;46.008;11.144;2023-09-07T00:35:02;18.70;99.90
45643;DHT22;31358;46.008;11.144;2023-09-07T00:37:29;18.60;99.90
45643;DHT22;31358;46.008;11.144;2023-09-07T00:39:54;18.60;99.90
45643;DHT22;31358;46.008;11.144;2023-09-07T00:42:20;18.50;99.90
45643;DHT22;31358;46.008;11.144;2023-09-07T00:44:46;18.50;99.90
45643;DHT22;31358;46.008;11.144;2023-09-07T00:47:14;18.50;99.90
45643;DHT22;31358;46.008;11.144;2023-09-07T00:49:40;18.50;99.90
45643;DHT22;31358;46.008;11.144;2023-09-07T00:52:06;18.50;99.90
45643;DHT22;31358;46.008;11.144;2023-09-07T00:54:33;18.60;99.90
45643;DHT22;31358;46.008;11.144;2023-09-07T00:56:59;18.60;99.90
45643;DHT22;31358;46.008;11.144;2023-09-07T00:59:25;18.70;99.90
45643;DHT22;31358;46.008;11.144;2023-09-07T01:01:51;18.80;99.90
45643;DHT22;31358;46.008;11.144;2023-09-07T01:04:17;18.80;99.90
45643;DHT22;31358;46.008;11.144;2023-09-07T01:06:47;18.90;99.90
45643;DHT22;31358;46.008;11.144;2023-09-07T01:09:19;19.00;99.90
45643;DHT22;31358;46.008;11.144;2023-09-07T01:11:45;19.10;99.90
45643;DHT22;31358;46.008;11.144;2023-09-07T01:14:10;19.10;99.90
45643;DHT22;31358;46.008;11.144;2023-09-07T01:16:36;19.00;99.90
45643;DHT22;31358;46.008;11.144;2023-09-07T01:19:06;18.80;99.90
45643;DHT22;31358;46.008;11.144;2023-09-07T01:21:36;18.70;99.90
45643;DHT22;31358;46.008;11.144;2023-09-07T01:24:08;18.80;99.90
45643;DHT22;31358;46.008;11.144;2023-09-07T01:26:35;18.80;99.90
45643;DHT22;31358;46.008;11.144;2023-09-07T01:29:04;18.90;99.90
45643;DHT22;31358;46.008;11.144;2023-09-07T01:31:30;18.90;99.90
45643;DHT22;31358;46.008;11.144;2023-09-07T01:33:56;18.90;99.90
45643;DHT22;31358;46.008;11.144;2023-09-07T01:36:21;18.90;99.90
45643;DHT22;31358;46.008;11.144;2023-09-07T01:38:47;19.00;99.90
45643;DHT22;31358;46.008;11.144;2023-09-07T01:41:13;19.00;99.90
45643;DHT22;31358;46.008;11.144;2023-09-07T01:43:38;19.00;99.90
45643;DHT22;31358;46.008;11.144;2023-09-07T01:46:04;19.10;99.90
45643;DHT22;31358;46.008;11.144;2023-09-07T01:48:30;19.10;99.90
45643;DHT22;31358;46.008;11.144;2023-09-07T01:50:55;19.10;99.90
45643;DHT22;31358;46.008;11.144;2023-09-07T01:53:21;19.00;99.90
45643;DHT22;31358;46.008;11.144;2023-09-07T01:55:47;19.10;99.90
45643;DHT22;31358;46.008;11.144;2023-09-07T01:58:13;19.00;99.90
45643;DHT22;31358;46.008;11.144;2023-09-07T02:00:39;19.00;99.90
45643;DHT22;31358;46.008;11.144;2023-09-07T02:03:06;18.90;99.90
45643;DHT22;31358;46.008;11.144;2023-09-07T02:05:31;18.90;99.90
45643;DHT22;31358;46.008;11.144;2023-09-07T02:07:58;18.90;99.90
45643;DHT22;31358;46.008;11.144;2023-09-07T02:10:24;18.80;99.90
45643;DHT22;31358;46.008;11.144;2023-09-07T02:12:49;18.70;99.90
45643;DHT22;31358;46.008;11.144;2023-09-07T02:15:15;18.70;99.90
45643;DHT22;31358;46.008;11.144;2023-09-07T02:17:41;18.60;99.90
45643;DHT22;31358;46.008;11.144;2023-09-07T02:20:11;18.60;99.90
45643;DHT22;31358;46.008;11.144;2023-09-07T02:22:37;18.60;99.90
45643;DHT22;31358;46.008;11.144;2023-09-07T02:25:03;18.70;99.90
45643;DHT22;31358;46.008;11.144;2023-09-07T02:27:34;18.70;99.90
45643;DHT22;31358;46.008;11.144;2023-09-07T02:30:01;18.70;99.90
45643;DHT22;31358;46.008;11.144;2023-09-07T02:32:27;18.60;99.90
45643;DHT22;31358;46.008;11.144;2023-09-07T02:34:53;18.40;99.90
45643;DHT22;31358;46.008;11.144;2023-09-07T02:37:19;18.40;99.90
45643;DHT22;31358;46.008;11.144;2023-09-07T02:39:44;18.30;99.90
45643;DHT22;31358;46.008;11.144;2023-09-07T02:42:10;18.20;99.90
45643;DHT22;31358;46.008;11.144;2023-09-07T02:44:36;18.30;99.90
45643;DHT22;31358;46.008;11.144;2023-09-07T02:47:01;18.20;99.90
45643;DHT22;31358;46.008;11.144;2023-09-07T02:49:27;18.00;99.90
45643;DHT22;31358;46.008;11.144;2023-09-07T02:51:53;17.90;99.90
45643;DHT22;31358;46.008;11.144;2023-09-07T02:54:18;17.90;99.90
45643;DHT22;31358;46.008;11.144;2023-09-07T02:56:45;17.80;99.90
45643;DHT22;31358;46.008;11.144;2023-09-07T02:59:10;17.90;99.90
45643;DHT22;31358;46.008;11.144;2023-09-07T03:01:38;17.90;99.90
45643;DHT22;31358;46.008;11.144;2023-09-07T03:04:05;17.90;99.90
45643;DHT22;31358;46.008;11.144;2023-09-07T03:06:31;17.90;99.90
45643;DHT22;31358;46.008;11.144;2023-09-07T03:08:57;17.80;99.90
45643;DHT22;31358;46.008;11.144;2023-09-07T03:11:23;17.70;99.90
45643;DHT22;31358;46.008;11.144;2023-09-07T03:13:48;17.70;99.90
45643;DHT22;31358;46.008;11.144;2023-09-07T03:16:14;17.70;99.90
45643;DHT22;31358;46.008;11.144;2023-09-07T03:18:40;17.70;99.90
45643;DHT22;31358;46.008;11.144;2023-09-07T03:21:06;17.70;99.90
45643;DHT22;31358;46.008;11.144;2023-09-07T03:23:32;17.80;99.90
45643;DHT22;31358;46.008;11.144;2023-09-07T03:25:59;17.90;99.90
45643;DHT22;31358;46.008;11.144;2023-09-07T03:28:25;18.00;99.90
45643;DHT22;31358;46.008;11.144;2023-09-07T03:30:52;18.10;99.90
45643;DHT22;31358;46.008;11.144;2023-09-07T03:33:17;18.30;99.90
45643;DHT22;31358;46.008;11.144;2023-09-07T03:35:43;18.30;99.90
45643;DHT22;31358;46.008;11.144;2023-09-07T03:38:09;18.30;99.90
45643;DHT22;31358;46.008;11.144;2023-09-07T03:40:35;18.20;99.90
45643;DHT22;31358;46.008;11.144;2023-09-07T03:43:00;18.10;99.90
45643;DHT22;31358;46.008;11.144;2023-09-07T03:45:26;18.20;99.90
45643;DHT22;31358;46.008;11.144;2023-09-07T03:47:52;18.20;99.90
45643;DHT22;31358;46.008;11.144;2023-09-07T03:50:17;18.10;99.90
45643;DHT22;31358;46.008;11.144;2023-09-07T03:52:43;18.10;99.90
45643;DHT22;31358;46.008;11.144;2023-09-07T03:55:09;18.00;99.90
45643;DHT22;31358;46.008;11.144;2023-09-07T03:57:34;17.80;99.90
45643;DHT22;31358;46.008;11.144;2023-09-07T04:00:00;17.80;99.90
45643;DHT22;31358;46.008;11.144;2023-09-07T04:02:26;17.60;99.90
45643;DHT22;31358;46.008;11.144;2023-09-07T04:04:53;17.60;99.90
45643;DHT22;31358;46.008;11.144;2023-09-07T04:07:19;17.60;99.90
45643;DHT22;31358;46.008;11.144;2023-09-07T04:09:45;17.50;99.90
45643;DHT22;31358;46.008;11.144;2023-09-07T04:12:11;17.60;99.90
45643;DHT22;31358;46.008;11.144;2023-09-07T04:14:37;17.40;99.90
45643;DHT22;31358;46.008;11.144;2023-09-07T04:17:04;17.50;99.90
45643;DHT22;31358;46.008;11.144;2023-09-07T04:19:30;17.60;99.90
45643;DHT22;31358;46.008;11.144;2023-09-07T04:21:57;17.60;99.90
45643;DHT22;31358;46.008;11.144;2023-09-07T04:24:22;17.40;99.90
45643;DHT22;31358;46.008;11.144;2023-09-07T04:26:48;17.30;99.90
45643;DHT22;31358;46.008;11.144;2023-09-07T04:29:15;17.20;99.90
45643;DHT22;31358;46.008;11.144;2023-09-07T04:31:41;17.10;99.90
45643;DHT22;31358;46.008;11.144;2023-09-07T04:34:07;16.90;99.90
45643;DHT22;31358;46.008;11.144;2023-09-07T04:36:33;17.00;99.90
45643;DHT22;31358;46.008;11.144;2023-09-07T04:38:58;17.00;99.90
45643;DHT22;31358;46.008;11.144;2023-09-07T04:41:24;17.00;99.90
45643;DHT22;31358;46.008;11.144;2023-09-07T04:43:50;17.20;99.90
45643;DHT22;31358;46.008;11.144;2023-09-07T04:46:15;17.40;99.90
45643;DHT22;31358;46.008;11.144;2023-09-07T04:48:42;17.70;99.90
45643;DHT22;31358;46.008;11.144;2023-09-07T04:51:09;17.70;99.90
45643;DHT22;31358;46.008;11.144;2023-09-07T04:53:36;17.60;99.90
45643;DHT22;31358;46.008;11.144;2023-09-07T04:56:03;17.20;99.90
45643;DHT22;31358;46.008;11.144;2023-09-07T04:58:29;17.20;99.90
45643;DHT22;31358;46.008;11.144;2023-09-07T05:01:02;17.20;99.90
45643;DHT22;31358;46.008;11.144;2023-09-07T05:03:27;17.20;99.90
45643;DHT22;31358;46.008;11.144;2023-09-07T05:05:53;17.20;99.90
45643;DHT22;31358;46.008;11.144;2023-09-07T05:08:19;17.50;99.90
45643;DHT22;31358;46.008;11.144;2023-09-07T05:10:45;17.70;99.90
45643;DHT22;31358;46.008;11.144;2023-09-07T05:13:11;17.80;99.90
45643;DHT22;31358;46.008;11.144;2023-09-07T05:15:37;17.90;99.90
45643;DHT22;31358;46.008;11.144;2023-09-07T05:18:02;17.80;99.90
45643;DHT22;31358;46.008;11.144;2023-09-07T05:20:30;17.70;99.90
45643;DHT22;31358;46.008;11.144;2023-09-07T05:22:56;17.70;99.90
45643;DHT22;31358;46.008;11.144;2023-09-07T05:25:22;17.60;99.90
45643;DHT22;31358;46.008;11.144;2023-09-07T05:27:48;17.60;99.90
45643;DHT22;31358;46.008;11.144;2023-09-07T05:30:14;17.70;99.90
45643;DHT22;31358;46.008;11.144;2023-09-07T05:32:40;17.80;99.90
45643;DHT22;31358;46.008;11.144;2023-09-07T05:35:07;17.70;99.90
45643;DHT22;31358;46.008;11.144;2023-09-07T05:37:33;17.60;99.90
45643;DHT22;31358;46.008;11.144;2023-09-07T05:39:58;17.50;99.90
45643;DHT22;31358;46.008;11.144;2023-09-07T05:42:24;17.40;99.90
45643;DHT22;31358;46.008;11.144;2023-09-07T05:44:51;17.30;99.90
45643;DHT22;31358;46.008;11.144;2023-09-07T05:47:17;17.30;99.90
45643;DHT22;31358;46.008;11.144;2023-09-07T05:49:43;17.20;99.90
45643;DHT22;31358;46.008;11.144;2023-09-07T05:52:08;17.20;99.90
45643;DHT22;31358;46.008;11.144;2023-09-07T05:54:34;17.30;99.90
45643;DHT22;31358;46.008;11.144;2023-09-07T05:57:00;17.40;99.90
45643;DHT22;31358;46.008;11.144;2023-09-07T05:59:26;17.40;99.90
45643;DHT22;31358;46.008;11.144;2023-09-07T06:01:51;17.50;99.90
45643;DHT22;31358;46.008;11.144;2023-09-07T06:04:17;17.50;99.90
45643;DHT22;31358;46.008;11.144;2023-09-07T06:06:42;17.40;99.90
45643;DHT22;31358;46.008;11.144;2023-09-07T06:09:08;17.50;99.90
45643;DHT22;31358;46.008;11.144;2023-09-07T06:11:34;17.50;99.90
45643;DHT22;31358;46.008;11.144;2023-09-07T06:14:00;17.40;99.90
45643;DHT22;31358;46.008;11.144;2023-09-07T06:16:26;17.40;99.90
45643;DHT22;31358;46.008;11.144;2023-09-07T06:18:51;17.40;99.90
45643;DHT22;31358;46.008;11.144;2023-09-07T06:21:17;17.30;99.90
45643;DHT22;31358;46.008;11.144;2023-09-07T06:23:43;17.30;99.90
45643;DHT22;31358;46.008;11.144;2023-09-07T06:26:09;17.40;99.90
45643;DHT22;31358;46.008;11.144;2023-09-07T06:28:34;17.40;99.90
45643;DHT22;31358;46.008;11.144;2023-09-07T06:31:00;17.50;99.90
45643;DHT22;31358;46.008;11.144;2023-09-07T06:33:25;17.50;99.90
45643;DHT22;31358;46.008;11.144;2023-09-07T06:35:51;17.50;99.90
45643;DHT22;31358;46.008;11.144;2023-09-07T06:38:17;17.50;99.90
45643;DHT22;31358;46.008;11.144;2023-09-07T06:40:48;17.50;99.90
45643;DHT22;31358;46.008;11.144;2023-09-07T06:43:14;17.50;99.90
45643;DHT22;31358;46.008;11.144;2023-09-07T06:45:39;17.50;99.90
45643;DHT22;31358;46.008;11.144;2023-09-07T06:48:05;17.50;99.90
45643;DHT22;31358;46.008;11.144;2023-09-07T06:50:31;17.60;99.90
45643;DHT22;31358;46.008;11.144;2023-09-07T06:52:57;17.70;99.90
45643;DHT22;31358;46.008;11.144;2023-09-07T06:55:22;18.00;99.90
45643;DHT22;31358;46.008;11.144;2023-09-07T06:57:48;18.80;99.90
45643;DHT22;31358;46.008;11.144;2023-09-07T07:00:15;20.80;99.90
45643;DHT22;31358;46.008;11.144;2023-09-07T07:02:40;22.40;99.90
45643;DHT22;31358;46.008;11.144;2023-09-07T07:05:06;24.60;97.70
45643;DHT22;31358;46.008;11.144;2023-09-07T07:07:33;25.80;96.00
45643;DHT22;31358;46.008;11.144;2023-09-07T07:09:59;26.30;95.20
45643;DHT22;31358;46.008;11.144;2023-09-07T07:12:25;26.40;95.10
45643;DHT22;31358;46.008;11.144;2023-09-07T07:14:51;26.60;94.30
45643;DHT22;31358;46.008;11.144;2023-09-07T07:17:17;27.00;94.20
45643;DHT22;31358;46.008;11.144;2023-09-07T07:19:43;25.70;94.40
45643;DHT22;31358;46.008;11.144;2023-09-07T07:22:08;23.00;97.80
45643;DHT22;31358;46.008;11.144;2023-09-07T07:24:34;21.30;99.90
45643;DHT22;31358;46.008;11.144;2023-09-07T07:27:00;20.30;99.90
45643;DHT22;31358;46.008;11.144;2023-09-07T07:29:26;19.70;99.90
45643;DHT22;31358;46.008;11.144;2023-09-07T07:31:52;19.10;99.90
45643;DHT22;31358;46.008;11.144;2023-09-07T07:34:18;19.30;99.90
45643;DHT22;31358;46.008;11.144;2023-09-07T07:36:43;19.20;99.90
45643;DHT22;31358;46.008;11.144;2023-09-07T07:39:09;19.10;99.90
45643;DHT22;31358;46.008;11.144;2023-09-07T07:41:35;19.10;99.90
45643;DHT22;31358;46.008;11.144;2023-09-07T07:44:01;19.20;99.90
45643;DHT22;31358;46.008;11.144;2023-09-07T07:46:27;19.20;99.90
45643;DHT22;31358;46.008;11.144;2023-09-07T07:48:52;19.30;99.90
45643;DHT22;31358;46.008;11.144;2023-09-07T07:51:18;19.30;99.90
45643;DHT22;31358;46.008;11.144;2023-09-07T07:53:44;19.50;99.90
45643;DHT22;31358;46.008;11.144;2023-09-07T07:56:17;19.50;99.90
45643;DHT22;31358;46.008;11.144;2023-09-07T07:58:43;19.50;99.90
45643;DHT22;31358;46.008;11.144;2023-09-07T08:01:19;19.50;99.90
45643;DHT22;31358;46.008;11.144;2023-09-07T08:03:45;19.60;99.90
45643;DHT22;31358;46.008;11.144;2023-09-07T08:06:11;19.60;99.90
45643;DHT22;31358;46.008;11.144;2023-09-07T08:08:39;19.60;99.90
45643;DHT22;31358;46.008;11.144;2023-09-07T08:11:04;19.70;99.90
45643;DHT22;31358;46.008;11.144;2023-09-07T08:13:34;19.70;99.90
45643;DHT22;31358;46.008;11.144;2023-09-07T08:16:03;19.90;99.90
45643;DHT22;31358;46.008;11.144;2023-09-07T08:18:30;19.90;99.90
45643;DHT22;31358;46.008;11.144;2023-09-07T08:20:57;20.00;99.90
45643;DHT22;31358;46.008;11.144;2023-09-07T08:23:23;20.00;99.90
45643;DHT22;31358;46.008;11.144;2023-09-07T08:25:51;20.10;99.90
45643;DHT22;31358;46.008;11.144;2023-09-07T08:28:17;20.20;99.90
45643;DHT22;31358;46.008;11.144;2023-09-07T08:30:44;20.40;99.90
45643;DHT22;31358;46.008;11.144;2023-09-07T08:33:09;20.40;99.90
45643;DHT22;31358;46.008;11.144;2023-09-07T08:35:35;20.50;99.90
45643;DHT22;31358;46.008;11.144;2023-09-07T08:38:03;20.50;99.90
45643;DHT22;31358;46.008;11.144;2023-09-07T08:40:34;20.50;99.90
45643;DHT22;31358;46.008;11.144;2023-09-07T08:43:04;20.50;99.90
45643;DHT22;31358;46.008;11.144;2023-09-07T08:45:30;20.50;99.90
45643;DHT22;31358;46.008;11.144;2023-09-07T08:47:59;20.60;99.90
45643;DHT22;31358;46.008;11.144;2023-09-07T08:50:25;20.70;99.90
45643;DHT22;31358;46.008;11.144;2023-09-07T08:52:52;20.70;99.90
45643;DHT22;31358;46.008;11.144;2023-09-07T08:55:19;20.70;99.90
45643;DHT22;31358;46.008;11.144;2023-09-07T08:57:45;23.30;99.90
45643;DHT22;31358;46.008;11.144;2023-09-07T09:00:11;26.10;98.60
45643;DHT22;31358;46.008;11.144;2023-09-07T09:02:42;27.30;96.30
45643;DHT22;31358;46.008;11.144;2023-09-07T09:05:12;27.90;96.30
45643;DHT22;31358;46.008;11.144;2023-09-07T09:07:40;28.80;95.70
45643;DHT22;31358;46.008;11.144;2023-09-07T09:10:06;28.00;95.20
45643;DHT22;31358;46.008;11.144;2023-09-07T09:12:33;28.90;94.90
45643;DHT22;31358;46.008;11.144;2023-09-07T09:15:00;29.00;94.90
45643;DHT22;31358;46.008;11.144;2023-09-07T09:17:27;28.90;94.70
45643;DHT22;31358;46.008;11.144;2023-09-07T09:19:52;27.60;94.80
45643;DHT22;31358;46.008;11.144;2023-09-07T09:22:18;28.30;95.00
45643;DHT22;31358;46.008;11.144;2023-09-07T09:24:47;28.80;94.40
45643;DHT22;31358;46.008;11.144;2023-09-07T09:27:13;28.80;94.30
45643;DHT22;31358;46.008;11.144;2023-09-07T09:29:40;28.90;94.30
45643;DHT22;31358;46.008;11.144;2023-09-07T09:32:07;29.10;94.60
45643;DHT22;31358;46.008;11.144;2023-09-07T09:34:34;29.10;94.40
45643;DHT22;31358;46.008;11.144;2023-09-07T09:37:01;28.80;94.40
45643;DHT22;31358;46.008;11.144;2023-09-07T09:39:27;28.40;94.50
45643;DHT22;31358;46.008;11.144;2023-09-07T09:41:53;27.40;95.20
45643;DHT22;31358;46.008;11.144;2023-09-07T09:44:21;26.00;96.00
45643;DHT22;31358;46.008;11.144;2023-09-07T09:46:52;24.80;97.50
45643;DHT22;31358;46.008;11.144;2023-09-07T09:49:20;24.40;98.40
45643;DHT22;31358;46.008;11.144;2023-09-07T09:51:51;24.20;98.20
45643;DHT22;31358;46.008;11.144;2023-09-07T09:54:17;23.70;98.80
45643;DHT22;31358;46.008;11.144;2023-09-07T09:56:44;24.00;99.30
45643;DHT22;31358;46.008;11.144;2023-09-07T09:59:11;24.00;98.80
45643;DHT22;31358;46.008;11.144;2023-09-07T10:01:45;24.00;99.70
45643;DHT22;31358;46.008;11.144;2023-09-07T10:04:17;24.00;98.80
45643;DHT22;31358;46.008;11.144;2023-09-07T10:06:56;24.00;99.70
45643;DHT22;31358;46.008;11.144;2023-09-07T10:09:23;24.20;99.00
45643;DHT22;31358;46.008;11.144;2023-09-07T10:11:53;24.20;98.10
45643;DHT22;31358;46.008;11.144;2023-09-07T10:14:19;24.20;99.30
45643;DHT22;31358;46.008;11.144;2023-09-07T10:16:47;24.30;98.50
45643;DHT22;31358;46.008;11.144;2023-09-07T10:19:24;24.20;98.40
45643;DHT22;31358;46.008;11.144;2023-09-07T10:21:52;24.50;98.50
45643;DHT22;31358;46.008;11.144;2023-09-07T10:24:29;24.50;98.50
45643;DHT22;31358;46.008;11.144;2023-09-07T10:27:08;24.40;98.20
45643;DHT22;31358;46.008;11.144;2023-09-07T10:29:45;24.30;98.00
45643;DHT22;31358;46.008;11.144;2023-09-07T10:32:11;24.40;98.30
45643;DHT22;31358;46.008;11.144;2023-09-07T10:34:40;24.80;98.20
45643;DHT22;31358;46.008;11.144;2023-09-07T10:37:10;24.80;97.90
45643;DHT22;31358;46.008;11.144;2023-09-07T10:39:39;25.00;97.70
45643;DHT22;31358;46.008;11.144;2023-09-07T10:42:05;25.10;97.20
45643;DHT22;31358;46.008;11.144;2023-09-07T10:44:31;24.80;97.30
45643;DHT22;31358;46.008;11.144;2023-09-07T10:46:57;24.70;97.50
45643;DHT22;31358;46.008;11.144;2023-09-07T10:49:23;24.80;97.20
45643;DHT22;31358;46.008;11.144;2023-09-07T10:51:49;25.20;98.40
45643;DHT22;31358;46.008;11.144;2023-09-07T10:54:22;25.40;97.80
45643;DHT22;31358;46.008;11.144;2023-09-07T10:56:49;25.50;97.60
45643;DHT22;31358;46.008;11.144;2023-09-07T10:59:16;25.50;96.80
45643;DHT22;31358;46.008;11.144;2023-09-07T11:01:44;25.40;96.90
45643;DHT22;31358;46.008;11.144;2023-09-07T11:04:10;25.60;97.10
45643;DHT22;31358;46.008;11.144;2023-09-07T11:06:40;25.90;97.30
45643;DHT22;31358;46.008;11.144;2023-09-07T11:09:06;26.00;96.40
45643;DHT22;31358;46.008;11.144;2023-09-07T11:11:35;26.20;96.20
45643;DHT22;31358;46.008;11.144;2023-09-07T11:14:02;26.40;96.20
45643;DHT22;31358;46.008;11.144;2023-09-07T11:16:29;26.30;96.30
45643;DHT22;31358;46.008;11.144;2023-09-07T11:18:55;26.30;96.90
45643;DHT22;31358;46.008;11.144;2023-09-07T11:21:21;26.30;97.00
45643;DHT22;31358;46.008;11.144;2023-09-07T11:23:48;26.40;96.60
45643;DHT22;31358;46.008;11.144;2023-09-07T11:26:14;26.30;96.90
45643;DHT22;31358;46.008;11.144;2023-09-07T11:28:45;26.40;97.20
45643;DHT22;31358;46.008;11.144;2023-09-07T11:31:11;26.50;97.20
45643;DHT22;31358;46.008;11.144;2023-09-07T11:33:36;26.40;97.40
45643;DHT22;31358;46.008;11.144;2023-09-07T11:36:03;26.40;96.50
45643;DHT22;31358;46.008;11.144;2023-09-07T11:38:35;26.60;96.90
45643;DHT22;31358;46.008;11.144;2023-09-07T11:41:01;26.60;96.70
45643;DHT22;31358;46.008;11.144;2023-09-07T11:43:27;26.60;96.50
45643;DHT22;31358;46.008;11.144;2023-09-07T11:45:53;26.70;97.00
45643;DHT22;31358;46.008;11.144;2023-09-07T11:48:18;26.70;97.10
45643;DHT22;31358;46.008;11.144;2023-09-07T11:50:44;27.00;96.10
45643;DHT22;31358;46.008;11.144;2023-09-07T11:53:10;27.10;96.00
45643;DHT22;31358;46.008;11.144;2023-09-07T11:55:36;27.20;96.10
45643;DHT22;31358;46.008;11.144;2023-09-07T11:58:03;27.20;96.30
45643;DHT22;31358;46.008;11.144;2023-09-07T12:00:30;27.40;96.00
45643;DHT22;31358;46.008;11.144;2023-09-07T12:02:57;27.40;95.10
45643;DHT22;31358;46.008;11.144;2023-09-07T12:05:22;27.50;94.50
45643;DHT22;31358;46.008;11.144;2023-09-07T12:07:48;27.50;94.70
45643;DHT22;31358;46.008;11.144;2023-09-07T12:10:14;27.60;94.40
45643;DHT22;31358;46.008;11.144;2023-09-07T12:12:40;27.70;95.10
45643;DHT22;31358;46.008;11.144;2023-09-07T12:15:07;27.80;95.10
45643;DHT22;31358;46.008;11.144;2023-09-07T12:17:33;28.00;94.90
45643;DHT22;31358;46.008;11.144;2023-09-07T12:19:59;27.80;94.20
45643;DHT22;31358;46.008;11.144;2023-09-07T12:22:26;27.70;94.00
45643;DHT22;31358;46.008;11.144;2023-09-07T12:24:51;27.70;93.90
45643;DHT22;31358;46.008;11.144;2023-09-07T12:27:17;27.60;94.00
45643;DHT22;31358;46.008;11.144;2023-09-07T12:29:44;27.80;93.70
45643;DHT22;31358;46.008;11.144;2023-09-07T12:32:10;27.90;94.70
45643;DHT22;31358;46.008;11.144;2023-09-07T12:34:35;28.00;93.50
45643;DHT22;31358;46.008;11.144;2023-09-07T12:37:01;28.00;94.00
45643;DHT22;31358;46.008;11.144;2023-09-07T12:39:30;28.00;93.40
45643;DHT22;31358;46.008;11.144;2023-09-07T12:41:55;28.10;93.90
45643;DHT22;31358;46.008;11.144;2023-09-07T12:44:21;28.40;94.30
45643;DHT22;31358;46.008;11.144;2023-09-07T12:46:47;28.40;94.40
45643;DHT22;31358;46.008;11.144;2023-09-07T12:49:12;28.50;94.40
45643;DHT22;31358;46.008;11.144;2023-09-07T12:51:41;28.50;93.60
45643;DHT22;31358;46.008;11.144;2023-09-07T12:54:06;28.40;93.40
45643;DHT22;31358;46.008;11.144;2023-09-07T12:56:32;28.60;93.30
45643;DHT22;31358;46.008;11.144;2023-09-07T12:58:58;28.60;93.50
45643;DHT22;31358;46.008;11.144;2023-09-07T13:01:25;28.50;93.70
45643;DHT22;31358;46.008;11.144;2023-09-07T13:03:51;28.70;94.40
45643;DHT22;31358;46.008;11.144;2023-09-07T13:06:17;28.80;93.50
45643;DHT22;31358;46.008;11.144;2023-09-07T13:08:43;28.80;94.30
45643;DHT22;31358;46.008;11.144;2023-09-07T13:11:10;28.90;93.90
45643;DHT22;31358;46.008;11.144;2023-09-07T13:13:36;28.90;93.40
45643;DHT22;31358;46.008;11.144;2023-09-07T13:16:02;28.80;93.60
45643;DHT22;31358;46.008;11.144;2023-09-07T13:18:27;28.80;93.90
45643;DHT22;31358;46.008;11.144;2023-09-07T13:20:53;29.00;94.00
45643;DHT22;31358;46.008;11.144;2023-09-07T13:23:25;29.00;93.50
45643;DHT22;31358;46.008;11.144;2023-09-07T13:25:51;28.90;94.40
45643;DHT22;31358;46.008;11.144;2023-09-07T13:28:17;29.10;93.90
45643;DHT22;31358;46.008;11.144;2023-09-07T13:30:42;28.80;93.50
45643;DHT22;31358;46.008;11.144;2023-09-07T13:33:08;28.80;93.40
45643;DHT22;31358;46.008;11.144;2023-09-07T13:35:34;28.90;93.70
45643;DHT22;31358;46.008;11.144;2023-09-07T13:37:59;29.00;94.40
45643;DHT22;31358;46.008;11.144;2023-09-07T13:40:25;29.10;93.60
45643;DHT22;31358;46.008;11.144;2023-09-07T13:42:55;29.20;94.30
45643;DHT22;31358;46.008;11.144;2023-09-07T13:45:20;29.10;93.40
45643;DHT22;31358;46.008;11.144;2023-09-07T13:47:46;29.10;93.20
45643;DHT22;31358;46.008;11.144;2023-09-07T13:50:12;29.10;93.20
45643;DHT22;31358;46.008;11.144;2023-09-07T13:52:38;29.00;93.40
45643;DHT22;31358;46.008;11.144;2023-09-07T13:55:05;29.10;93.70
45643;DHT22;31358;46.008;11.144;2023-09-07T13:57:30;29.00;93.20
45643;DHT22;31358;46.008;11.144;2023-09-07T13:59:56;29.10;93.30
45643;DHT22;31358;46.008;11.144;2023-09-07T14:02:22;29.20;93.30
45643;DHT22;31358;46.008;11.144;2023-09-07T14:04:48;29.30;93.80
45643;DHT22;31358;46.008;11.144;2023-09-07T14:07:15;29.30;92.80
45643;DHT22;31358;46.008;11.144;2023-09-07T14:09:40;29.20;92.90
45643;DHT22;31358;46.008;11.144;2023-09-07T14:12:06;29.30;93.70
45643;DHT22;31358;46.008;11.144;2023-09-07T14:14:32;29.40;93.30
45643;DHT22;31358;46.008;11.144;2023-09-07T14:16:58;29.50;93.50
45643;DHT22;31358;46.008;11.144;2023-09-07T14:19:25;29.30;92.80
45643;DHT22;31358;46.008;11.144;2023-09-07T14:21:56;29.30;93.10
45643;DHT22;31358;46.008;11.144;2023-09-07T14:24:22;29.20;92.80
45643;DHT22;31358;46.008;11.144;2023-09-07T14:26:47;29.30;92.90
45643;DHT22;31358;46.008;11.144;2023-09-07T14:29:13;29.20;92.80
45643;DHT22;31358;46.008;11.144;2023-09-07T14:31:39;29.30;93.20
45643;DHT22;31358;46.008;11.144;2023-09-07T14:34:04;29.30;93.60
45643;DHT22;31358;46.008;11.144;2023-09-07T14:36:30;29.30;93.20
45643;DHT22;31358;46.008;11.144;2023-09-07T14:38:56;29.30;93.40
45643;DHT22;31358;46.008;11.144;2023-09-07T14:41:21;29.30;92.70
45643;DHT22;31358;46.008;11.144;2023-09-07T14:43:48;29.30;93.30
45643;DHT22;31358;46.008;11.144;2023-09-07T14:46:15;29.20;93.20
45643;DHT22;31358;46.008;11.144;2023-09-07T14:48:41;29.00;93.20
45643;DHT22;31358;46.008;11.144;2023-09-07T14:51:07;29.20;93.10
45643;DHT22;31358;46.008;11.144;2023-09-07T14:53:33;29.20;93.20
45643;DHT22;31358;46.008;11.144;2023-09-07T14:55:59;29.30;93.40
45643;DHT22;31358;46.008;11.144;2023-09-07T14:58:25;29.30;92.90
45643;DHT22;31358;46.008;11.144;2023-09-07T15:00:51;29.20;93.20
45643;DHT22;31358;46.008;11.144;2023-09-07T15:03:16;29.20;92.90
45643;DHT22;31358;46.008;11.144;2023-09-07T15:05:42;29.10;93.10
45643;DHT22;31358;46.008;11.144;2023-09-07T15:08:08;29.10;93.00
45643;DHT22;31358;46.008;11.144;2023-09-07T15:10:33;29.10;93.20